Time;durP1;ratioP1;P1;durP2;ratioP2;P2;SDS_P1;SDS_P2;PMS_P1;PMS_P2;Temp;Humidity;BMP_temperature;BMP_pressure;BME280_temperature;BME280_humidity;BME280_pressure;Samples;Min_cycle;Max_cycle;Signal;HPM_P1;HPM_P2
2023/05/02 00:01:18;;;;;;;10.80;5.30;;;;;;;;;;5075585;28;20123;-73
2023/05/02 00:03:44;;;;;;;12.85;5.45;;;;;;;;;;5074411;28;20085;-71
2023/05/02 00:06:10;;;;;;;11.35;5.00;;;;;;;;;;5062444;28;20436;-71
2023/05/02 00:08:36;;;;;;;12.27;5.30;;;;;;;;;;5054854;28;20057;-70
2023/05/02 00:11:02;;;;;;;8.60;4.82;;;;;;;;;;5054073;28;20071;-72
2023/05/02 00:13:29;;;;;;;12.05;4.78;;;;;;;;;;5055237;28;20071;-71
2023/05/02 00:15:55;;;;;;;8.95;4.80;;;;;;;;;;5053649;28;20047;-71
2023/05/02 00:18:22;;;;;;;12.88;4.47;;;;;;;;;;5075435;28;20044;-71
2023/05/02 00:20:49;;;;;;;11.90;4.30;;;;;;;;;;5073885;28;20053;-71
2023/05/02 00:23:15;;;;;;;10.75;4.20;;;;;;;;;;5075788;28;20131;-71
2023/05/02 00:25:45;;;;;;;10.27;3.80;;;;;;;;;;5075271;28;20068;-71
2023/05/02 00:28:12;;;;;;;11.40;3.80;;;;;;;;;;5075280;28;20053;-72
2023/05/02 00:30:42;;;;;;;10.63;3.53;;;;;;;;;;5074440;28;20044;-71
2023/05/02 00:33:08;;;;;;;9.38;4.07;;;;;;;;;;5075153;28;20045;-72
2023/05/02 00:35:34;;;;;;;6.90;3.47;;;;;;;;;;5074790;28;20127;-71
2023/05/02 00:38:00;;;;;;;9.95;3.85;;;;;;;;;;5074763;28;20132;-72
2023/05/02 00:40:26;;;;;;;10.57;3.60;;;;;;;;;;5074868;28;20159;-71
2023/05/02 00:42:52;;;;;;;12.32;3.53;;;;;;;;;;5073592;28;20048;-71
2023/05/02 00:45:18;;;;;;;7.85;3.80;;;;;;;;;;5074283;28;20442;-71
2023/05/02 00:47:44;;;;;;;7.97;3.67;;;;;;;;;;5073565;28;20432;-71
2023/05/02 00:50:10;;;;;;;9.70;3.83;;;;;;;;;;5074946;28;20048;-72
2023/05/02 00:52:37;;;;;;;8.35;4.07;;;;;;;;;;5074613;28;20132;-71
2023/05/02 00:55:03;;;;;;;10.35;4.00;;;;;;;;;;5074707;28;20041;-72
2023/05/02 00:57:29;;;;;;;9.48;3.78;;;;;;;;;;5072395;28;20085;-71
2023/05/02 00:59:55;;;;;;;9.48;3.83;;;;;;;;;;5073162;28;20044;-71
2023/05/02 01:02:21;;;;;;;7.38;3.63;;;;;;;;;;5074184;28;20485;-71
2023/05/02 01:04:47;;;;;;;11.60;3.95;;;;;;;;;;5074002;28;20087;-71
2023/05/02 01:07:32;;;;;;;8.40;3.47;;;;;;;;;;5074102;28;20052;-72
2023/05/02 01:10:19;;;;;;;7.05;3.65;;;;;;;;;;5063733;28;20037;-71
2023/05/02 01:12:54;;;;;;;8.35;3.80;;;;;;;;;;5072955;28;20051;-71
2023/05/02 01:15:21;;;;;;;9.80;3.80;;;;;;;;;;5054163;28;20049;-71
2023/05/02 01:17:48;;;;;;;11.07;3.97;;;;;;;;;;5053235;28;20397;-71
2023/05/02 01:20:17;;;;;;;13.05;3.92;;;;;;;;;;5054254;28;20478;-71
2023/05/02 01:22:43;;;;;;;11.27;3.90;;;;;;;;;;5054030;28;20516;-71
2023/05/02 01:25:15;;;;;;;9.95;4.00;;;;;;;;;;5054940;28;20049;-71
2023/05/02 01:27:57;;;;;;;12.85;4.20;;;;;;;;;;5075300;28;20045;-71
2023/05/02 01:30:24;;;;;;;16.80;4.50;;;;;;;;;;5075654;28;20387;-71
2023/05/02 01:32:51;;;;;;;17.63;5.28;;;;;;;;;;5072379;28;20043;-71
2023/05/02 01:35:17;;;;;;;16.60;4.78;;;;;;;;;;5074104;28;20041;-72
2023/05/02 01:37:45;;;;;;;15.57;4.60;;;;;;;;;;5073974;28;20044;-72
2023/05/02 01:40:11;;;;;;;13.73;4.38;;;;;;;;;;5071897;28;20041;-72
2023/05/02 01:42:38;;;;;;;14.18;4.50;;;;;;;;;;5072180;28;20131;-72
2023/05/02 01:45:06;;;;;;;16.55;4.45;;;;;;;;;;5073608;28;20036;-72
2023/05/02 01:47:35;;;;;;;15.70;4.80;;;;;;;;;;5070743;28;20048;-72
2023/05/02 01:50:02;;;;;;;17.25;5.07;;;;;;;;;;5071607;28;20052;-71
2023/05/02 01:52:29;;;;;;;19.15;5.13;;;;;;;;;;5073166;28;20040;-72
2023/05/02 01:54:57;;;;;;;21.67;4.90;;;;;;;;;;5071865;28;20064;-71
2023/05/02 01:57:23;;;;;;;20.88;5.10;;;;;;;;;;5071972;28;20129;-71
2023/05/02 01:59:49;;;;;;;20.92;5.32;;;;;;;;;;5072040;28;20400;-70
2023/05/02 02:02:16;;;;;;;20.45;4.50;;;;;;;;;;5072872;28;20045;-71
2023/05/02 02:04:43;;;;;;;23.45;4.80;;;;;;;;;;5071504;28;20052;-72
2023/05/02 02:07:10;;;;;;;16.80;4.70;;;;;;;;;;5072338;28;20055;-71
2023/05/02 02:09:36;;;;;;;16.75;4.40;;;;;;;;;;5057695;28;20056;-72
2023/05/02 02:12:08;;;;;;;17.75;4.35;;;;;;;;;;5072869;28;20051;-72
2023/05/02 02:14:36;;;;;;;20.40;5.25;;;;;;;;;;5071669;28;20056;-72
2023/05/02 02:17:05;;;;;;;22.60;4.90;;;;;;;;;;5073219;28;20102;-72
2023/05/02 02:19:32;;;;;;;16.73;5.10;;;;;;;;;;5072527;28;20109;-71
2023/05/02 02:21:59;;;;;;;24.20;5.40;;;;;;;;;;5073167;28;20051;-72
2023/05/02 02:24:26;;;;;;;23.65;4.97;;;;;;;;;;5070661;28;20049;-72
2023/05/02 02:26:52;;;;;;;24.38;5.22;;;;;;;;;;5072610;28;20037;-71
2023/05/02 02:29:18;;;;;;;20.10;5.00;;;;;;;;;;5071400;28;20082;-71
2023/05/02 02:31:44;;;;;;;20.50;4.75;;;;;;;;;;5071786;28;20048;-71
2023/05/02 02:34:10;;;;;;;24.55;5.10;;;;;;;;;;5072676;28;20044;-71
2023/05/02 02:36:43;;;;;;;25.17;5.53;;;;;;;;;;5070879;28;20045;-71
2023/05/02 02:39:21;;;;;;;24.08;5.80;;;;;;;;;;5072436;28;20182;-73
2023/05/02 02:42:14;;;;;;;22.50;5.07;;;;;;;;;;5072686;28;20040;-71
2023/05/02 02:44:49;;;;;;;23.40;5.57;;;;;;;;;;5071330;28;20091;-71
2023/05/02 02:47:25;;;;;;;25.48;5.70;;;;;;;;;;5072628;28;20055;-71
2023/05/02 02:50:00;;;;;;;23.88;5.22;;;;;;;;;;5072238;28;20048;-71
2023/05/02 02:52:36;;;;;;;19.85;4.68;;;;;;;;;;5072659;28;20063;-71
2023/05/02 02:55:24;;;;;;;18.10;4.75;;;;;;;;;;5072521;28;20403;-71
2023/05/02 02:57:55;;;;;;;22.23;5.40;;;;;;;;;;5070915;28;20309;-71
2023/05/02 03:00:24;;;;;;;21.65;5.70;;;;;;;;;;5070815;28;20054;-71
2023/05/02 03:02:52;;;;;;;19.38;4.70;;;;;;;;;;5072587;28;20604;-71
2023/05/02 03:05:18;;;;;;;16.27;4.30;;;;;;;;;;5070920;28;20048;-72
2023/05/02 03:07:44;;;;;;;21.80;3.90;;;;;;;;;;5071769;28;20056;-71
2023/05/02 03:10:11;;;;;;;18.88;4.40;;;;;;;;;;5072492;28;20090;-71
2023/05/02 03:12:38;;;;;;;16.20;4.40;;;;;;;;;;5072136;28;20078;-71
2023/05/02 03:15:15;;;;;;;18.95;4.22;;;;;;;;;;5054413;28;20098;-72
2023/05/02 03:17:41;;;;;;;15.05;3.42;;;;;;;;;;5072685;28;20045;-71
2023/05/02 03:20:08;;;;;;;16.58;3.50;;;;;;;;;;5072161;28;20100;-71
2023/05/02 03:22:34;;;;;;;16.27;3.70;;;;;;;;;;5070888;28;20137;-71
2023/05/02 03:24:59;;;;;;;25.88;4.13;;;;;;;;;;5072152;28;20512;-72
2023/05/02 03:27:26;;;;;;;13.77;3.28;;;;;;;;;;5070874;28;20048;-71
2023/05/02 03:29:52;;;;;;;16.65;4.00;;;;;;;;;;5070919;28;20048;-71
2023/05/02 03:32:18;;;;;;;13.85;3.53;;;;;;;;;;5072055;28;20036;-72
2023/05/02 03:34:44;;;;;;;18.55;3.47;;;;;;;;;;5072265;28;20044;-71
2023/05/02 03:37:10;;;;;;;14.63;3.35;;;;;;;;;;5072327;28;20354;-71
2023/05/02 03:39:36;;;;;;;14.82;3.67;;;;;;;;;;5070870;28;20091;-72
2023/05/02 03:42:02;;;;;;;13.73;3.53;;;;;;;;;;5071827;28;20085;-71
2023/05/02 03:44:28;;;;;;;14.73;3.72;;;;;;;;;;5072000;28;20438;-71
2023/05/02 03:46:54;;;;;;;11.77;2.95;;;;;;;;;;5054219;28;20052;-71
2023/05/02 03:49:20;;;;;;;13.82;3.15;;;;;;;;;;5071704;28;20048;-71
2023/05/02 03:51:46;;;;;;;13.75;3.45;;;;;;;;;;5070542;28;20434;-71
2023/05/02 03:54:12;;;;;;;9.00;2.90;;;;;;;;;;5071550;28;20155;-71
2023/05/02 03:56:38;;;;;;;13.02;2.92;;;;;;;;;;5071552;28;20037;-71
2023/05/02 03:59:05;;;;;;;13.13;2.92;;;;;;;;;;5071723;28;20063;-71
2023/05/02 04:01:31;;;;;;;10.25;2.55;;;;;;;;;;5071509;28;20115;-71
2023/05/02 04:03:57;;;;;;;10.98;2.72;;;;;;;;;;5070585;28;20048;-71
2023/05/02 04:06:23;;;;;;;10.77;2.90;;;;;;;;;;5070247;28;20048;-71
2023/05/02 04:08:49;;;;;;;10.55;2.80;;;;;;;;;;5070453;28;20048;-72
2023/05/02 04:11:15;;;;;;;13.68;2.85;;;;;;;;;;5069274;28;20102;-71
2023/05/02 04:13:41;;;;;;;9.55;2.38;;;;;;;;;;5071788;28;20044;-71
2023/05/02 04:16:07;;;;;;;14.43;2.90;;;;;;;;;;5071495;28;20037;-72
2023/05/02 04:18:33;;;;;;;10.35;2.63;;;;;;;;;;5071707;28;20386;-72
2023/05/02 04:20:59;;;;;;;11.00;2.67;;;;;;;;;;5071622;28;20090;-72
2023/05/02 04:23:25;;;;;;;8.45;2.70;;;;;;;;;;5071593;28;20040;-72
2023/05/02 04:25:55;;;;;;;9.10;2.55;;;;;;;;;;5053099;28;20040;-72
2023/05/02 04:28:21;;;;;;;7.80;2.78;;;;;;;;;;5072790;28;20048;-71
2023/05/02 04:30:50;;;;;;;10.10;2.60;;;;;;;;;;5073447;28;20054;-71
2023/05/02 04:33:17;;;;;;;6.80;2.53;;;;;;;;;;5075085;28;20238;-72
2023/05/02 04:35:46;;;;;;;8.65;2.50;;;;;;;;;;5073898;28;20040;-72
2023/05/02 04:38:12;;;;;;;10.30;2.40;;;;;;;;;;5075141;28;20048;-72
2023/05/02 04:40:38;;;;;;;8.75;2.80;;;;;;;;;;5074237;28;20118;-72
2023/05/02 04:43:04;;;;;;;10.07;2.70;;;;;;;;;;5073974;28;20408;-71
2023/05/02 04:45:31;;;;;;;10.80;3.10;;;;;;;;;;5074515;28;20148;-72
2023/05/02 04:47:57;;;;;;;14.90;3.30;;;;;;;;;;5073643;28;20071;-72
2023/05/02 04:50:23;;;;;;;7.85;2.75;;;;;;;;;;5074066;28;20040;-72
2023/05/02 04:52:49;;;;;;;9.30;2.88;;;;;;;;;;5073405;28;20435;-72
2023/05/02 04:55:15;;;;;;;10.23;2.83;;;;;;;;;;5065483;28;20382;-72
2023/05/02 04:57:41;;;;;;;13.50;3.10;;;;;;;;;;5074703;28;20044;-72
2023/05/02 05:00:07;;;;;;;16.08;3.10;;;;;;;;;;5074612;28;20037;-72
2023/05/02 05:02:33;;;;;;;11.07;3.10;;;;;;;;;;5073007;28;20501;-72
2023/05/02 05:05:01;;;;;;;13.15;3.33;;;;;;;;;;5074366;28;20119;-70
2023/05/02 05:07:27;;;;;;;11.05;3.35;;;;;;;;;;5072986;28;20519;-71
2023/05/02 05:09:53;;;;;;;13.93;3.75;;;;;;;;;;5073785;28;20067;-71
2023/05/02 05:12:19;;;;;;;14.07;3.63;;;;;;;;;;5073421;28;20041;-71
2023/05/02 05:14:45;;;;;;;16.40;3.47;;;;;;;;;;5074283;28;20044;-71
2023/05/02 05:17:11;;;;;;;12.85;3.40;;;;;;;;;;5073264;28;20127;-71
2023/05/02 05:19:37;;;;;;;12.43;3.90;;;;;;;;;;5074036;28;20040;-71
2023/05/02 05:22:03;;;;;;;12.93;3.53;;;;;;;;;;5074255;28;20037;-71
2023/05/02 05:24:29;;;;;;;13.77;3.38;;;;;;;;;;5074307;28;20036;-71
2023/05/02 05:26:55;;;;;;;8.68;3.05;;;;;;;;;;5073928;28;20140;-71
2023/05/02 05:29:21;;;;;;;13.05;3.58;;;;;;;;;;5073714;28;20131;-71
2023/05/02 05:31:47;;;;;;;10.45;3.00;;;;;;;;;;5072471;28;20041;-73
2023/05/02 05:34:13;;;;;;;15.00;3.55;;;;;;;;;;5073910;28;20044;-71
2023/05/02 05:36:40;;;;;;;14.60;3.60;;;;;;;;;;5073644;28;20041;-73
2023/05/02 05:39:06;;;;;;;14.90;4.70;;;;;;;;;;5072550;28;20113;-71
2023/05/02 05:41:33;;;;;;;14.10;4.22;;;;;;;;;;5071437;28;20036;-71
2023/05/02 05:43:59;;;;;;;9.48;3.33;;;;;;;;;;5072892;28;20063;-71
2023/05/02 05:46:25;;;;;;;8.40;3.13;;;;;;;;;;5070510;28;20106;-71
2023/05/02 05:48:51;;;;;;;16.10;3.42;;;;;;;;;;5072122;28;20063;-72
2023/05/02 05:51:17;;;;;;;12.48;4.05;;;;;;;;;;5072976;28;20048;-70
2023/05/02 05:53:43;;;;;;;11.30;3.40;;;;;;;;;;5065766;28;20052;-72
2023/05/02 05:56:12;;;;;;;13.18;3.42;;;;;;;;;;5070381;28;20049;-73
2023/05/02 05:58:39;;;;;;;10.63;3.70;;;;;;;;;;5071398;28;20056;-72
2023/05/02 06:01:06;;;;;;;15.73;3.55;;;;;;;;;;5051920;28;20547;-72
2023/05/02 06:03:32;;;;;;;21.45;3.90;;;;;;;;;;5052599;28;20045;-72
2023/05/02 06:05:58;;;;;;;18.05;4.03;;;;;;;;;;5052138;28;20079;-72
2023/05/02 06:08:24;;;;;;;10.85;3.20;;;;;;;;;;5051438;28;20061;-72
2023/05/02 06:10:50;;;;;;;9.82;3.33;;;;;;;;;;5051670;28;20106;-73
2023/05/02 06:13:16;;;;;;;15.38;3.83;;;;;;;;;;5065371;28;20040;-73
2023/05/02 06:15:42;;;;;;;13.50;3.78;;;;;;;;;;5070328;28;20519;-72
2023/05/02 06:18:08;;;;;;;13.02;3.25;;;;;;;;;;5072193;28;20052;-73
2023/05/02 06:20:35;;;;;;;12.65;3.50;;;;;;;;;;5072809;28;20040;-73
2023/05/02 06:23:01;;;;;;;11.20;3.50;;;;;;;;;;5054371;28;20123;-72
2023/05/02 06:25:28;;;;;;;12.77;3.58;;;;;;;;;;5072651;28;20441;-73
2023/05/02 06:27:54;;;;;;;11.25;3.30;;;;;;;;;;5071396;28;20131;-72
2023/05/02 06:30:20;;;;;;;13.43;3.28;;;;;;;;;;5072699;28;20044;-74
2023/05/02 06:32:46;;;;;;;10.77;3.35;;;;;;;;;;5072409;28;20103;-73
2023/05/02 06:35:12;;;;;;;13.93;3.63;;;;;;;;;;5072795;28;20098;-72
2023/05/02 06:37:38;;;;;;;11.68;3.03;;;;;;;;;;5072515;28;20036;-73
2023/05/02 06:40:04;;;;;;;8.38;3.15;;;;;;;;;;5072687;28;20101;-72
2023/05/02 06:42:30;;;;;;;8.18;3.00;;;;;;;;;;5071427;28;20070;-73
2023/05/02 06:44:56;;;;;;;12.85;3.78;;;;;;;;;;5072744;28;20033;-73
2023/05/02 06:47:23;;;;;;;10.45;3.20;;;;;;;;;;5072183;28;20158;-73
2023/05/02 06:49:50;;;;;;;8.90;3.17;;;;;;;;;;5071553;28;20123;-73
2023/05/02 06:52:16;;;;;;;10.40;3.47;;;;;;;;;;5071897;28;20036;-74
2023/05/02 06:54:42;;;;;;;13.35;3.30;;;;;;;;;;5057332;28;20366;-73
2023/05/02 07:00:08;;;;;;;14.95;4.32;;;;;;;;;;4996495;28;20139;-73
2023/05/02 07:02:34;;;;;;;14.30;3.47;;;;;;;;;;5008396;28;20049;-72
2023/05/02 07:05:00;;;;;;;14.32;3.70;;;;;;;;;;5009456;28;20126;-72
2023/05/02 07:07:26;;;;;;;12.82;3.67;;;;;;;;;;4990548;28;20458;-73
2023/05/02 07:09:52;;;;;;;10.70;3.70;;;;;;;;;;4974399;28;20437;-72
2023/05/02 07:12:18;;;;;;;12.50;3.30;;;;;;;;;;5009029;28;20042;-73
2023/05/02 07:14:45;;;;;;;11.45;3.47;;;;;;;;;;5009451;28;20056;-74
2023/05/02 07:17:11;;;;;;;10.25;4.03;;;;;;;;;;4988553;28;20083;-73
2023/05/02 07:19:37;;;;;;;10.65;3.60;;;;;;;;;;5026885;28;20045;-72
2023/05/02 07:22:03;;;;;;;14.88;3.67;;;;;;;;;;5025367;28;20034;-72
2023/05/02 07:24:29;;;;;;;13.63;3.63;;;;;;;;;;5008154;28;20077;-73
2023/05/02 07:26:55;;;;;;;6.28;2.85;;;;;;;;;;5007122;28;20439;-73
2023/05/02 07:29:22;;;;;;;11.70;3.50;;;;;;;;;;5007584;28;20141;-73
2023/05/02 07:31:48;;;;;;;12.57;3.47;;;;;;;;;;4989347;28;20041;-73
2023/05/02 07:34:14;;;;;;;10.40;3.20;;;;;;;;;;5007473;28;20046;-73
2023/05/02 07:36:40;;;;;;;14.05;3.22;;;;;;;;;;5008307;28;20046;-73
2023/05/02 07:39:06;;;;;;;8.55;3.10;;;;;;;;;;5008829;28;20452;-73
2023/05/02 07:41:32;;;;;;;11.00;3.00;;;;;;;;;;4989829;28;20046;-73
2023/05/02 07:43:58;;;;;;;8.70;2.85;;;;;;;;;;5008453;28;20077;-73
2023/05/02 07:46:24;;;;;;;13.25;2.53;;;;;;;;;;5007362;28;20112;-73
2023/05/02 07:48:52;;;;;;;10.57;2.40;;;;;;;;;;5006909;28;20042;-72
2023/05/02 07:51:20;;;;;;;9.20;2.40;;;;;;;;;;5008216;28;20049;-73
2023/05/02 07:53:46;;;;;;;11.00;2.58;;;;;;;;;;5007699;28;20382;-72
2023/05/02 07:56:12;;;;;;;6.07;2.33;;;;;;;;;;5006874;28;20038;-73
2023/05/02 07:58:38;;;;;;;7.05;2.63;;;;;;;;;;4988796;28;20054;-72
2023/05/02 08:01:04;;;;;;;8.80;2.70;;;;;;;;;;5006981;28;20058;-73
2023/05/02 08:03:30;;;;;;;6.32;2.10;;;;;;;;;;5006172;28;20050;-73
2023/05/02 08:05:56;;;;;;;6.50;2.00;;;;;;;;;;5007486;28;20501;-73
2023/05/02 08:08:22;;;;;;;6.18;2.03;;;;;;;;;;5011181;28;20128;-73
2023/05/02 08:10:50;;;;;;;7.90;2.25;;;;;;;;;;5010240;28;20159;-74
2023/05/02 08:13:16;;;;;;;6.57;2.03;;;;;;;;;;5012441;28;20410;-73
2023/05/02 08:15:42;;;;;;;4.03;1.98;;;;;;;;;;5008948;28;20093;-73
2023/05/02 08:18:08;;;;;;;5.65;2.17;;;;;;;;;;4993551;28;20059;-74
2023/05/02 08:20:35;;;;;;;6.35;2.08;;;;;;;;;;4992704;28;20410;-73
2023/05/02 08:23:01;;;;;;;5.15;2.05;;;;;;;;;;4977417;28;20474;-74
2023/05/02 08:25:27;;;;;;;5.97;2.08;;;;;;;;;;5011516;28;20036;-73
2023/05/02 08:27:53;;;;;;;6.22;2.00;;;;;;;;;;5011219;28;20042;-73
2023/05/02 08:30:19;;;;;;;5.30;1.80;;;;;;;;;;5010837;28;20053;-73
2023/05/02 08:32:46;;;;;;;6.35;1.80;;;;;;;;;;5009978;28;20132;-72
2023/05/02 08:35:12;;;;;;;6.47;1.80;;;;;;;;;;4994415;28;20046;-73
2023/05/02 08:37:39;;;;;;;4.38;1.83;;;;;;;;;;5010717;28;20117;-74
2023/05/02 08:40:05;;;;;;;5.25;1.55;;;;;;;;;;5011467;28;20082;-73
2023/05/02 08:42:33;;;;;;;4.82;1.65;;;;;;;;;;5011468;28;20081;-74
2023/05/02 08:45:00;;;;;;;5.10;1.70;;;;;;;;;;5010625;28;20409;-74
2023/05/02 08:47:26;;;;;;;4.93;1.65;;;;;;;;;;5009572;28;20460;-73
2023/05/02 08:49:53;;;;;;;5.57;1.80;;;;;;;;;;5009390;28;20485;-74
2023/05/02 08:52:19;;;;;;;6.63;1.80;;;;;;;;;;5008717;28;20389;-73
2023/05/02 08:54:46;;;;;;;6.93;1.95;;;;;;;;;;5011343;28;20081;-74
2023/05/02 08:57:12;;;;;;;5.32;1.88;;;;;;;;;;5013762;28;20425;-73
2023/05/02 08:59:38;;;;;;;3.42;1.45;;;;;;;;;;5005124;28;20512;-74
2023/05/02 09:02:25;;;;;;;5.75;1.90;;;;;;;;;;5011840;28;20046;-71
2023/05/02 09:04:54;;;;;;;5.65;1.90;;;;;;;;;;5001088;28;20417;-70
2023/05/02 09:07:21;;;;;;;6.25;1.90;;;;;;;;;;5011274;28;20092;-71
2023/05/02 09:09:47;;;;;;;5.72;1.80;;;;;;;;;;5011136;28;20037;-71
2023/05/02 09:12:15;;;;;;;5.47;1.83;;;;;;;;;;5011611;28;20072;-71
2023/05/02 09:14:42;;;;;;;6.40;1.98;;;;;;;;;;5010892;28;20149;-70
2023/05/02 09:17:08;;;;;;;5.57;2.00;;;;;;;;;;5009442;28;20510;-70
2023/05/02 09:19:34;;;;;;;7.70;1.85;;;;;;;;;;5011402;28;20132;-71
2023/05/02 09:22:00;;;;;;;5.40;1.95;;;;;;;;;;5011046;28;20056;-70
2023/05/02 09:24:28;;;;;;;6.80;1.90;;;;;;;;;;5010666;28;20046;-70
2023/05/02 09:26:56;;;;;;;7.15;1.73;;;;;;;;;;5010791;28;20062;-70
2023/05/02 09:29:23;;;;;;;7.20;1.90;;;;;;;;;;5011044;28;20042;-70
2023/05/02 09:31:49;;;;;;;9.00;2.00;;;;;;;;;;5010003;28;20054;-71
2023/05/02 09:34:16;;;;;;;5.05;1.90;;;;;;;;;;5009619;28;20137;-70
2023/05/02 09:36:43;;;;;;;5.53;1.80;;;;;;;;;;5009608;28;20046;-70
2023/05/02 09:39:10;;;;;;;5.18;1.88;;;;;;;;;;5010256;28;20057;-70
2023/05/02 09:41:40;;;;;;;5.75;1.88;;;;;;;;;;5010390;28;20132;-70
2023/05/02 09:44:09;;;;;;;4.65;1.70;;;;;;;;;;5010587;28;20050;-70
2023/05/02 09:46:42;;;;;;;8.80;2.17;;;;;;;;;;5011548;28;20050;-74
2023/05/02 09:49:09;;;;;;;6.60;1.98;;;;;;;;;;5013621;28;20091;-74
2023/05/02 09:51:35;;;;;;;5.28;1.60;;;;;;;;;;5011297;28;20057;-70
2023/05/02 09:54:02;;;;;;;5.80;1.80;;;;;;;;;;5010189;28;20435;-71
2023/05/02 09:56:28;;;;;;;4.38;1.55;;;;;;;;;;5011998;28;20050;-71
2023/05/02 09:59:16;;;;;;;5.05;1.98;;;;;;;;;;5012985;28;20164;-71
2023/05/02 10:01:42;;;;;;;3.38;1.50;;;;;;;;;;5009174;28;20054;-71
2023/05/02 10:04:15;;;;;;;6.60;1.80;;;;;;;;;;5010362;28;20128;-71
2023/05/02 10:06:43;;;;;;;4.25;1.63;;;;;;;;;;5008553;28;20474;-71
2023/05/02 10:09:10;;;;;;;7.18;1.85;;;;;;;;;;5010234;28;20089;-71
2023/05/02 10:11:39;;;;;;;4.13;1.52;;;;;;;;;;4992129;28;20050;-70
2023/05/02 10:14:08;;;;;;;5.63;1.70;;;;;;;;;;5011617;28;20058;-70
2023/05/02 10:16:36;;;;;;;5.82;1.80;;;;;;;;;;5012568;28;20053;-70
2023/05/02 10:19:09;;;;;;;3.70;1.55;;;;;;;;;;5011589;28;20485;-70
2023/05/02 10:21:36;;;;;;;4.25;1.30;;;;;;;;;;5012828;28;20099;-70
2023/05/02 10:24:03;;;;;;;5.32;1.40;;;;;;;;;;5012693;28;20046;-73
2023/05/02 10:26:29;;;;;;;3.35;1.40;;;;;;;;;;4995234;28;20041;-72
2023/05/02 10:28:56;;;;;;;4.78;1.63;;;;;;;;;;5011337;28;20053;-73
2023/05/02 10:31:22;;;;;;;5.40;1.70;;;;;;;;;;5010034;28;20053;-73
2023/05/02 10:33:52;;;;;;;4.25;1.30;;;;;;;;;;5011892;28;20145;-73
2023/05/02 10:36:22;;;;;;;7.03;1.88;;;;;;;;;;5011151;28;20044;-73
2023/05/02 10:38:49;;;;;;;4.35;1.52;;;;;;;;;;5009817;28;20115;-72
2023/05/02 10:41:22;;;;;;;5.10;1.80;;;;;;;;;;4975745;28;20054;-72
2023/05/02 10:43:49;;;;;;;4.75;1.70;;;;;;;;;;5009554;28;20042;-72
2023/05/02 10:46:31;;;;;;;4.35;1.75;;;;;;;;;;4975855;28;20053;-73
2023/05/02 10:49:05;;;;;;;8.60;2.00;;;;;;;;;;5009835;28;20370;-72
2023/05/02 10:51:31;;;;;;;5.35;2.15;;;;;;;;;;5009667;28;20431;-72
2023/05/02 10:54:19;;;;;;;6.28;1.95;;;;;;;;;;5008787;28;20034;-72
2023/05/02 10:57:04;;;;;;;6.40;1.92;;;;;;;;;;5009704;28;20127;-71
2023/05/02 10:59:37;;;;;;;4.85;1.88;;;;;;;;;;5008066;28;20481;-71
2023/05/02 11:02:04;;;;;;;5.82;1.80;;;;;;;;;;5009414;28;20382;-72
2023/05/02 11:04:49;;;;;;;6.20;2.03;;;;;;;;;;4991405;28;20084;-72
2023/05/02 11:07:18;;;;;;;5.35;1.90;;;;;;;;;;4991604;28;20468;-72
2023/05/02 11:09:45;;;;;;;7.03;2.10;;;;;;;;;;5011338;28;20467;-73
2023/05/02 11:12:11;;;;;;;5.85;1.90;;;;;;;;;;5011260;28;20037;-72
2023/05/02 11:14:37;;;;;;;5.97;1.60;;;;;;;;;;5011829;28;20038;-73
2023/05/02 11:17:03;;;;;;;4.80;1.58;;;;;;;;;;5012224;28;20100;-74
2023/05/02 11:19:50;;;;;;;3.47;1.60;;;;;;;;;;4995023;28;20044;-74
2023/05/02 11:22:26;;;;;;;7.72;1.73;;;;;;;;;;4991449;28;20045;-74
2023/05/02 11:24:53;;;;;;;5.35;1.73;;;;;;;;;;4994874;28;20053;-73
2023/05/02 11:27:32;;;;;;;4.18;1.60;;;;;;;;;;5011128;28;20122;-73
2023/05/02 11:29:58;;;;;;;4.75;1.50;;;;;;;;;;4994425;28;20054;-73
2023/05/02 11:32:26;;;;;;;4.93;1.63;;;;;;;;;;4994778;28;20133;-73
2023/05/02 11:34:54;;;;;;;3.78;1.65;;;;;;;;;;4994446;28;20398;-74
2023/05/02 11:37:20;;;;;;;3.00;1.42;;;;;;;;;;5012045;28;20050;-73
2023/05/02 11:39:46;;;;;;;4.03;1.50;;;;;;;;;;4994450;28;20049;-72
2023/05/02 11:42:29;;;;;;;5.20;1.55;;;;;;;;;;5016342;28;20065;-72
2023/05/02 11:44:58;;;;;;;4.35;1.60;;;;;;;;;;5014954;28;20128;-73
2023/05/02 11:47:26;;;;;;;4.22;1.52;;;;;;;;;;5016259;28;20406;-72
2023/05/02 11:49:54;;;;;;;3.55;1.27;;;;;;;;;;5016132;28;20065;-73
2023/05/02 11:52:20;;;;;;;4.13;1.52;;;;;;;;;;4998431;28;20509;-73
2023/05/02 11:54:46;;;;;;;4.95;1.40;;;;;;;;;;4997861;28;20132;-73
2023/05/02 11:57:12;;;;;;;1.63;1.10;;;;;;;;;;5016096;28;20096;-72
2023/05/02 11:59:51;;;;;;;3.80;1.13;;;;;;;;;;5015597;28;20050;-72
2023/05/02 12:02:17;;;;;;;2.78;1.27;;;;;;;;;;4998214;28;20108;-73
2023/05/02 12:04:46;;;;;;;1.50;1.10;;;;;;;;;;5015591;28;20099;-72
2023/05/02 12:07:12;;;;;;;3.58;1.33;;;;;;;;;;5015492;28;20057;-74
2023/05/02 12:09:54;;;;;;;2.58;1.20;;;;;;;;;;4981350;28;20133;-73
2023/05/02 12:12:21;;;;;;;6.75;1.42;;;;;;;;;;4982148;28;20111;-73
2023/05/02 12:14:47;;;;;;;2.13;1.10;;;;;;;;;;4997977;28;20057;-74
2023/05/02 12:17:14;;;;;;;3.83;1.10;;;;;;;;;;5014249;28;20132;-73
2023/05/02 12:19:40;;;;;;;3.22;1.30;;;;;;;;;;4997739;28;20049;-73
2023/05/02 12:22:06;;;;;;;3.22;1.00;;;;;;;;;;5014070;28;20421;-73
2023/05/02 12:24:34;;;;;;;3.22;1.10;;;;;;;;;;5015006;28;20129;-74
2023/05/02 12:27:13;;;;;;;2.25;1.00;;;;;;;;;;5015596;28;20053;-73
2023/05/02 12:29:46;;;;;;;2.53;1.20;;;;;;;;;;5013944;28;20141;-72
2023/05/02 12:32:13;;;;;;;3.85;1.13;;;;;;;;;;5014068;28;20046;-73
2023/05/02 12:34:39;;;;;;;1.80;1.10;;;;;;;;;;5015710;28;20050;-74
2023/05/02 12:37:06;;;;;;;3.92;1.10;;;;;;;;;;5015540;28;20458;-73
2023/05/02 12:39:38;;;;;;;3.58;1.20;;;;;;;;;;5015005;28;20089;-73
2023/05/02 12:42:15;;;;;;;2.40;1.05;;;;;;;;;;5015451;28;20129;-73
2023/05/02 12:44:45;;;;;;;1.95;1.02;;;;;;;;;;5014203;28;20587;-72
2023/05/02 12:47:11;;;;;;;3.95;1.13;;;;;;;;;;5015455;28;20045;-72
2023/05/02 12:49:49;;;;;;;2.75;1.10;;;;;;;;;;5015219;28;20073;-73
2023/05/02 12:52:16;;;;;;;2.85;1.27;;;;;;;;;;5014380;28;20054;-73
2023/05/02 12:54:42;;;;;;;6.35;1.45;;;;;;;;;;5015253;28;20393;-74
2023/05/02 12:57:08;;;;;;;4.40;1.40;;;;;;;;;;5015872;28;20203;-72
2023/05/02 12:59:34;;;;;;;3.60;1.30;;;;;;;;;;5017246;28;20057;-72
2023/05/02 13:02:00;;;;;;;4.05;1.40;;;;;;;;;;5018611;28;20104;-72
2023/05/02 13:04:33;;;;;;;4.75;1.35;;;;;;;;;;5015103;28;20073;-72
2023/05/02 13:07:00;;;;;;;6.75;1.88;;;;;;;;;;5013856;28;20057;-73
2023/05/02 13:09:26;;;;;;;4.75;1.50;;;;;;;;;;5014426;28;20560;-72
2023/05/02 13:11:53;;;;;;;6.82;1.73;;;;;;;;;;5013510;28;20390;-73
2023/05/02 13:14:19;;;;;;;4.72;1.65;;;;;;;;;;5014805;28;20054;-72
2023/05/02 13:16:45;;;;;;;5.68;1.50;;;;;;;;;;5014577;28;20034;-73
2023/05/02 13:19:11;;;;;;;5.85;1.90;;;;;;;;;;5012815;28;20176;-73
2023/05/02 13:21:37;;;;;;;3.67;1.45;;;;;;;;;;5012969;28;20053;-73
2023/05/02 13:24:03;;;;;;;4.97;1.42;;;;;;;;;;5014091;28;20060;-73
2023/05/02 13:26:29;;;;;;;5.28;1.58;;;;;;;;;;4996300;28;20045;-73
2023/05/02 13:28:55;;;;;;;3.80;1.30;;;;;;;;;;5011259;28;20421;-72
2023/05/02 13:31:21;;;;;;;4.50;1.50;;;;;;;;;;5013839;28;20129;-72
2023/05/02 13:33:47;;;;;;;4.75;1.40;;;;;;;;;;5010684;28;20135;-73
2023/05/02 13:36:13;;;;;;;6.35;1.60;;;;;;;;;;4993159;28;20092;-72
2023/05/02 13:38:39;;;;;;;3.70;1.50;;;;;;;;;;5012551;28;20042;-73
2023/05/02 13:41:06;;;;;;;5.13;1.20;;;;;;;;;;5013093;28;20038;-73
2023/05/02 13:43:32;;;;;;;4.50;1.60;;;;;;;;;;5013604;28;20397;-73
2023/05/02 13:45:58;;;;;;;4.75;1.60;;;;;;;;;;5013616;28;20045;-74
2023/05/02 13:48:24;;;;;;;3.90;1.20;;;;;;;;;;5013381;28;20137;-74
2023/05/02 13:50:50;;;;;;;5.90;1.42;;;;;;;;;;4995679;28;20049;-73
2023/05/02 13:53:16;;;;;;;3.35;1.40;;;;;;;;;;4995460;28;20054;-74
2023/05/02 13:55:42;;;;;;;5.15;1.40;;;;;;;;;;5013249;28;20038;-73
2023/05/02 13:58:08;;;;;;;4.78;1.42;;;;;;;;;;4994991;28;20137;-75
2023/05/02 14:00:34;;;;;;;3.92;1.33;;;;;;;;;;5010836;28;20046;-74
2023/05/02 14:03:01;;;;;;;3.63;1.17;;;;;;;;;;5012034;28;20057;-74
2023/05/02 14:05:27;;;;;;;3.80;1.10;;;;;;;;;;4995860;28;20046;-75
2023/05/02 14:07:53;;;;;;;2.30;1.23;;;;;;;;;;5013223;28;20038;-74
2023/05/02 14:10:19;;;;;;;5.20;1.30;;;;;;;;;;5013423;28;20046;-74
2023/05/02 14:12:45;;;;;;;3.63;1.33;;;;;;;;;;4996021;28;20438;-74
2023/05/02 14:15:11;;;;;;;5.40;1.13;;;;;;;;;;5012531;28;20045;-74
2023/05/02 14:17:37;;;;;;;5.80;1.75;;;;;;;;;;5013337;28;20041;-74
2023/05/02 14:20:04;;;;;;;4.15;1.40;;;;;;;;;;5013276;28;20556;-74
2023/05/02 14:22:30;;;;;;;4.50;1.40;;;;;;;;;;5011994;28;20435;-74
2023/05/02 14:24:56;;;;;;;5.25;1.50;;;;;;;;;;5016745;28;20132;-74
2023/05/02 14:27:22;;;;;;;3.65;1.20;;;;;;;;;;5012892;28;20060;-73
2023/05/02 14:29:48;;;;;;;4.55;1.40;;;;;;;;;;5010474;28;20038;-73
2023/05/02 14:32:15;;;;;;;5.60;1.48;;;;;;;;;;5013101;28;20099;-73
2023/05/02 14:34:41;;;;;;;6.53;1.50;;;;;;;;;;5013192;28;20054;-74
2023/05/02 14:37:07;;;;;;;3.63;1.25;;;;;;;;;;4995634;28;20045;-73
2023/05/02 14:39:35;;;;;;;5.47;1.80;;;;;;;;;;5011333;28;20094;-74
2023/05/02 14:42:03;;;;;;;5.28;1.67;;;;;;;;;;5012732;28;20054;-73
2023/05/02 14:44:32;;;;;;;5.53;1.40;;;;;;;;;;5013161;28;20049;-74